小松飛行場の過去48時間の天気

小松飛行場 (Kanazawa/Komatsu)

現在時刻: 9/19 06:56 JST (9/18 21:56 UTC) 以下の時間は現地時間です。

過去48時間のMETAR気象情報
時間 風向 風速(m/s) 視程 気温(℃) 湿度(%) 気圧(hPa) 天気現象
19 06:00 北東 6 10km以上 20 88 1013
19 05:00 北東 6 10km以上 20 88 1012
19 04:00 北東 7 10km以上 21 83 1012
19 03:00 北北東 8 10km以上 21 83 1012
19 02:00 北東 6 10km以上 22 83 1012
19 01:00 北北東 7 10km以上 23 78 1012
19 00:00 北北東 7 10km以上 23 83 1012
18 23:00 北北東 7 10km以上 23 83 1011
18 22:00 北東 5 10km以上 22 88 1011
18 21:00 北北東 4 10km以上 23 83 1011 弱いしゅう雨
18 20:00 北東 7 10km以上 23 89 1010 弱いしゅう雨
18 19:00 北北東 8 8000m 23 94 1009 弱いしゅう雨
18 18:00 北東 7 10km以上 24 89 1008 弱いしゅう雨
18 17:00 7 10km以上 24 89 1007 弱いしゅう雨
18 16:00 7 7000m 23 94 1007 弱いしゅう雨
18 15:00 北西 3 10km以上 25 89 1006
18 14:00 不定 2 10km以上 27 79 1006
18 13:00 不定 1 10km以上 26 84 1006
18 12:00 不定 1 10km以上 24 94 1006 弱いしゅう雨
18 11:00 不定 1 4000m 23 94 1006 弱いしゅう雨 もや
18 10:00 不定 1 5000m 23 94 1006 弱いしゅう雨 もや
18 09:00 不定 1 8000m 23 94 1006 弱いしゅう雨
18 08:00 不定 1 10km以上 22 94 1005 弱いしゅう雨
18 07:00 不定 1 10km以上 22 94 1005 弱いしゅう雨
18 06:00 不定 1 8000m 22 94 1005 弱いしゅう雨
18 05:00 2 10km以上 22 94 1005
18 04:00 不定 1 10km以上 22 94 1004 弱い雨
18 03:00 不定 1 10km以上 22 94 1005 弱いしゅう雨
18 02:00 不定 1 10km以上 22 94 1005 弱いしゅう雨
18 01:00 2 10km以上 22 94 1005 弱いしゅう雨
18 00:00 不定 1 10km以上 22 100 1006 弱いしゅう雨
17 23:00 静穏 0 10km以上 22 94 1006 弱いしゅう雨
17 22:00 東北東 2 10km以上 23 89 1007 弱いしゅう雨
17 21:00 2 10km以上 24 83 1007 弱い雨
17 20:00 不定 1 10km以上 24 83 1007
17 19:00 2 10km以上 25 78 1007 弱い雨
17 18:00 3 10km以上 25 78 1008
17 17:00 北北東 5 10km以上 25 78 1008
17 16:00 4 10km以上 26 74 1008 弱い雨
17 15:00 北北東 5 10km以上 26 65 1009
17 14:00 4 10km以上 26 65 1009
17 13:00 北西 3 10km以上 26 70 1010
17 12:00 西 2 10km以上 25 78 1010
17 11:00 南東 2 10km以上 25 65 1011
17 10:00 東北東 2 10km以上 25 74 1011
17 09:00 不定 1 10km以上 24 74 1011
17 08:00 2 10km以上 22 83 1011
17 07:00 不定 1 10km以上 21 83 1012
RJNK 182100Z 04011KT 9999 FEW015 20/18 Q1013
RJNK 182000Z 04012KT 9999 FEW040 20/18 Q1012
RJNK 181900Z 04014KT 9999 FEW015 BKN040 21/18 Q1012
RJNK 181800Z 03015KT 9999 FEW015 SCT030 BKN040 21/18 Q1012
RJNK 181700Z 04012KT 9999 FEW015 BKN030 BKN040 22/19 Q1012
RJNK 181600Z 03014KT 9999 FEW008 BKN030 23/19 Q1012
RJNK 181500Z 03013KT 9999 FEW008 SCT015 BKN030 23/20 Q1012
RJNK 181400Z 03014KT 9999 FEW008 SCT020 BKN030 23/20 Q1011
RJNK 181300Z 04010KT 9999 FEW008 SCT020 BKN030 22/20 Q1011
RJNK 181200Z 03008KT 9999 -SHRA FEW008 SCT020 BKN030 23/20 Q1011
RJNK 181100Z 04013KT 9999 -SHRA FEW008 SCT010 BKN020 23/21 Q1010
RJNK 181000Z 02015KT 8000 -SHRA SCT008 SCT010 BKN020 23/22 Q1009
RJNK 180900Z 04013KT 9999 -SHRA SCT008 BKN020 BKN030 24/22 Q1008
RJNK 180800Z 01013KT 9999 -SHRA SCT008 BKN020 BKN030 24/22 Q1007
RJNK 180700Z 01014KT 7000 -SHRA FEW005 BKN008 BKN020 23/22 Q1007
RJNK 180600Z 31006KT 9999 FEW008 SCT020 BKN030 25/23 Q1006
RJNK 180500Z VRB03KT 9999 FEW008 SCT020 BKN030 27/23 Q1006
RJNK 180400Z VRB02KT 9999 FEW005 SCT008 BKN020 26/23 Q1006
RJNK 180300Z VRB02KT 9999 -SHRA FEW003 SCT005 BKN020 24/23 Q1006
RJNK 180200Z VRB02KT 4000 -SHRA BR FEW003 BKN005 BKN008 23/22 Q1006
RJNK 180100Z VRB02KT 5000 -SHRA BR FEW003 SCT005 BKN008 23/22 Q1006
RJNK 180000Z VRB02KT 8000 -SHRA FEW008 BKN030 BKN050 23/22 Q1006
RJNK 172300Z VRB01KT 9999 -SHRA FEW008 SCT030 BKN050 22/21 Q1005
RJNK 172200Z VRB02KT 9999 -SHRA SCT030 BKN050 BKN080 22/21 Q1005
RJNK 172100Z VRB02KT 8000 -SHRA SCT030 BKN050 BKN080 22/21 Q1005
RJNK 172000Z 09004KT 9999 FEW030 SCT050 BKN080 22/21 Q1005
RJNK 171900Z VRB02KT 9999 -RA SCT050 BKN080 OVC100 22/21 Q1004
RJNK 171800Z VRB02KT 9999 -SHRA FEW005 SCT030 BKN050 22/21 Q1005
RJNK 171700Z VRB02KT 9999 -SHRA FEW003 BKN050 BKN080 22/21 Q1005
RJNK 171600Z 10003KT 9999 -SHRA FEW003 SCT030 BKN050 22/21 Q1005
RJNK 171500Z VRB01KT 9999 -SHRA SCT030 BKN050 BKN080 22/22 Q1006
RJNK 171400Z 00000KT 9999 -SHRA FEW030 BKN050 BKN080 22/21 Q1006
RJNK 171300Z 07003KT 030V090 9999 -SHRA FEW020 SCT030 BKN050 23/21 Q1007
RJNK 171200Z 36003KT 320V020 9999 -RA SCT050 BKN080 OVC100 24/21 Q1007
RJNK 171100Z VRB01KT 9999 FEW050 SCT080 OVC100 24/21 Q1007
RJNK 171000Z 08003KT 050V140 9999 -RA FEW050 BKN100 OVC120 25/21 Q1007
RJNK 170900Z 01006KT 9999 FEW050 BKN100 BKN120 25/21 Q1008
RJNK 170800Z 02009KT 9999 FEW050 SCT100 BKN120 25/21 Q1008
RJNK 170700Z 01008KT 9999 -RA FEW030 SCT070 BKN100 26/21 Q1008
RJNK 170600Z 03009KT 9999 FEW030 BKN070 OVC100 26/19 Q1009
RJNK 170500Z 01008KT 9999 FEW030 BKN070 OVC100 26/19 Q1009
RJNK 170400Z 31006KT 9999 FEW050 BKN070 OVC100 26/20 Q1010
RJNK 170300Z 28003KT 9999 FEW050 BKN070 BKN100 25/21 Q1010
RJNK 170200Z 14003KT 110V170 9999 FEW050 BKN070 BKN100 25/18 Q1011
RJNK 170100Z 06003KT 020V090 9999 FEW050 BKN070 BKN100 25/20 Q1011
RJNK 170000Z VRB02KT 9999 SCT050 BKN070 BKN100 24/19 Q1011
RJNK 162300Z 19003KT 160V230 9999 FEW050 SCT070 BKN100 22/19 Q1011
RJNK 162200Z VRB02KT 9999 FEW030 BKN070 BKN250 21/18 Q1012